OSD weather

Åre Östersund Airport
Östersund, Jämtlande län, Sweden

Public forecast

Using degrees Celsius for public forecast. Weather courtesy of forecast.io.

METAR (pilot weather report)

Retrieved 2019/05/25 17:20 UTC (0 seconds ago):

ESNZ 251720Z 30012KT CAVOK 09/03 Q1002

TAF (pilot weather forecast)

Forecast is more than 12 hours old.

Closest forecast is Kramfors Sollefteå Airport, 89.1 nm (165.1 km) E. Retrieved 2015/10/08 12:00 UTC (4 years ago):

TAF ESNK 081130Z 0812/0824 18005KT CAVOK PROB40 0820/0824 4000 BR